Time;durP1;ratioP1;P1;durP2;ratioP2;P2;SDS_P1;SDS_P2;PMS_P1;PMS_P2;Temp;Humidity;BMP_temperature;BMP_pressure;BME280_temperature;BME280_humidity;BME280_pressure;Samples;Min_cycle;Max_cycle;Signal;HPM_P1;HPM_P2
2022/01/30 00:00:34;;;;;;;9.50;2.70;;;;;;;18.73;46.68;102623.13;5012439;28;20032;-69
2022/01/30 00:03:00;;;;;;;8.85;2.80;;;;;;;18.72;46.91;102621.41;5011661;28;20482;-69
2022/01/30 00:05:27;;;;;;;9.43;2.80;;;;;;;18.70;46.52;102625.94;5012312;28;20092;-69
2022/01/30 00:07:52;;;;;;;10.35;2.65;;;;;;;18.67;46.85;102634.91;5012656;28;20045;-69
2022/01/30 00:10:18;;;;;;;8.85;3.10;;;;;;;18.66;46.82;102640.28;5011311;28;20037;-68
2022/01/30 00:12:58;;;;;;;8.10;3.05;;;;;;;18.64;46.66;102650.94;5012409;28;20062;-68
2022/01/30 00:15:37;;;;;;;11.43;3.13;;;;;;;18.63;46.86;102645.72;5011071;28;20041;-68
2022/01/30 00:18:20;;;;;;;6.78;2.80;;;;;;;18.61;46.47;102640.53;5012388;28;20030;-68
2022/01/30 00:20:59;;;;;;;7.88;2.38;;;;;;;18.59;46.71;102639.75;5012496;28;20397;-69
2022/01/30 00:23:26;;;;;;;9.57;2.65;;;;;;;18.58;46.37;102640.69;5011106;28;20041;-69
2022/01/30 00:25:54;;;;;;;7.30;2.45;;;;;;;18.53;46.42;102640.06;5012315;28;20452;-69
2022/01/30 00:28:22;;;;;;;8.65;2.45;;;;;;;18.54;47.00;102649.72;5011672;28;20038;-69
2022/01/30 00:30:48;;;;;;;8.27;2.40;;;;;;;18.52;46.58;102651.59;5011500;28;20084;-70
2022/01/30 00:33:13;;;;;;;12.40;2.83;;;;;;;18.51;46.49;102655.16;5011948;28;20060;-69
2022/01/30 00:35:39;;;;;;;10.45;2.80;;;;;;;18.50;46.96;102664.03;5012233;28;20049;-69
2022/01/30 00:38:10;;;;;;;9.32;2.63;;;;;;;18.47;46.84;102659.75;5011446;28;20446;-69
2022/01/30 00:40:35;;;;;;;13.50;3.60;;;;;;;18.45;46.62;102664.28;5011865;28;20482;-69
2022/01/30 00:43:01;;;;;;;11.30;2.60;;;;;;;18.42;46.81;102651.25;5015146;28;20033;-69
2022/01/30 00:45:26;;;;;;;8.33;2.47;;;;;;;18.43;46.45;102660.84;5014586;28;20564;-69
2022/01/30 00:47:51;;;;;;;7.47;2.80;;;;;;;18.42;46.59;102656.53;5015515;28;20270;-69
2022/01/30 00:50:17;;;;;;;9.88;2.70;;;;;;;18.40;46.22;102654.88;5014528;28;20275;-69
2022/01/30 00:52:53;;;;;;;7.03;2.08;;;;;;;18.40;46.58;102657.53;5015401;28;20036;-69
2022/01/30 00:55:19;;;;;;;8.02;2.60;;;;;;;18.38;46.89;102662.03;5015153;28;20375;-70
2022/01/30 00:57:44;;;;;;;7.78;2.75;;;;;;;18.36;46.58;102663.88;5014738;28;20057;-70
2022/01/30 01:00:18;;;;;;;8.23;2.40;;;;;;;18.33;46.55;102658.81;5015121;28;20505;-70
2022/01/30 01:02:44;;;;;;;8.77;2.47;;;;;;;18.31;46.65;102665.00;5015114;28;20702;-70
2022/01/30 01:05:10;;;;;;;8.43;2.50;;;;;;;18.32;46.50;102665.84;5014178;28;20030;-70
2022/01/30 01:07:40;;;;;;;9.82;2.50;;;;;;;18.29;46.53;102666.88;5015052;28;20026;-70
2022/01/30 01:10:16;;;;;;;8.60;2.58;;;;;;;18.29;46.49;102679.22;5015457;28;20110;-70
2022/01/30 01:13:03;;;;;;;8.35;2.33;;;;;;;18.29;46.14;102679.22;5014399;28;20038;-70
2022/01/30 01:24:01;;;;;;;8.65;2.35;;;;;;;18.22;46.72;102673.41;5014970;28;20041;-70
2022/01/30 01:26:27;;;;;;;7.68;2.38;;;;;;;18.21;46.51;102678.75;5013609;28;20092;-70
2022/01/30 01:28:53;;;;;;;8.38;2.58;;;;;;;18.21;46.24;102686.69;5014982;28;20030;-70
2022/01/30 01:31:19;;;;;;;8.95;2.78;;;;;;;18.20;46.33;102679.69;5014556;28;20429;-70
2022/01/30 01:36:11;;;;;;;7.40;2.28;;;;;;;18.17;46.17;102685.16;5014449;28;20026;-70
2022/01/30 01:38:36;;;;;;;8.88;2.45;;;;;;;18.16;46.29;102686.06;5014503;28;20038;-70
2022/01/30 01:41:01;;;;;;;9.77;2.58;;;;;;;18.15;46.10;102695.78;5013652;28;20498;-69
2022/01/30 01:43:27;;;;;;;8.18;2.17;;;;;;;18.13;46.21;102689.72;5014269;28;20037;-69
2022/01/30 01:45:55;;;;;;;7.07;2.00;;;;;;;18.12;46.36;102693.31;5014615;28;20359;-69
2022/01/30 01:48:20;;;;;;;10.27;2.55;;;;;;;18.10;46.15;102695.16;5013252;28;20041;-69
2022/01/30 01:51:05;;;;;;;9.35;2.65;;;;;;;18.10;46.19;102690.75;5014288;28;20378;-69
2022/01/30 01:53:32;;;;;;;9.95;2.38;;;;;;;18.09;46.10;102702.22;5012254;28;20156;-69
2022/01/30 01:55:57;;;;;;;8.55;2.83;;;;;;;18.07;46.10;102709.38;5014591;28;20045;-69
2022/01/30 01:58:24;;;;;;;9.90;2.40;;;;;;;18.06;46.13;102702.38;5013810;28;20371;-69
2022/01/30 02:00:49;;;;;;;7.93;2.53;;;;;;;18.06;46.15;102701.53;5013385;28;20052;-69
2022/01/30 02:03:17;;;;;;;9.43;2.92;;;;;;;18.04;46.08;102706.91;5013782;28;20022;-69
2022/01/30 02:05:48;;;;;;;9.70;2.30;;;;;;;18.04;46.03;102706.03;5013831;28;20466;-69
2022/01/30 02:11:04;;;;;;;9.25;2.30;;;;;;;18.02;45.93;102699.97;5014184;28;20045;-69
2022/01/30 02:13:55;;;;;;;9.60;2.30;;;;;;;18.00;46.26;102689.50;5013581;28;20034;-69
2022/01/30 02:24:46;;;;;;;7.00;2.15;;;;;;;17.94;45.92;102676.63;5014916;28;20380;-69
2022/01/30 02:27:18;;;;;;;7.20;2.45;;;;;;;17.93;46.05;102674.94;5013382;28;20501;-69
2022/01/30 02:29:44;;;;;;;10.48;2.83;;;;;;;17.91;45.62;102676.78;5012955;28;20406;-69
2022/01/30 02:32:09;;;;;;;9.95;2.47;;;;;;;17.90;46.15;102693.56;5013316;28;20028;-69
2022/01/30 02:34:34;;;;;;;8.32;2.35;;;;;;;17.88;46.17;102693.63;5013552;28;20057;-70
2022/01/30 02:37:00;;;;;;;9.55;2.55;;;;;;;17.88;46.11;102695.41;5012666;28;20033;-69
2022/01/30 02:39:26;;;;;;;9.85;2.60;;;;;;;17.86;45.92;102695.44;5013293;28;20245;-69
2022/01/30 02:41:55;;;;;;;10.55;2.70;;;;;;;17.86;45.82;102691.97;5013264;28;20572;-69
2022/01/30 02:46:52;;;;;;;10.25;2.58;;;;;;;17.84;45.77;102693.84;5013668;28;20037;-69
2022/01/30 02:51:51;;;;;;;9.90;2.85;;;;;;;17.82;45.99;102680.72;5012206;28;20052;-70
2022/01/30 02:54:17;;;;;;;;;;;;;;;17.80;45.69;102681.72;5013563;28;20096;-70
2022/01/30 02:56:45;;;;;;;9.73;2.60;;;;;;;17.80;45.87;102685.25;5013214;28;19917;-70
2022/01/30 02:59:11;;;;;;;9.13;2.15;;;;;;;17.80;45.81;102687.00;5012992;28;20026;-70
2022/01/30 03:01:37;;;;;;;8.20;2.30;;;;;;;17.79;45.65;102685.31;5013001;28;20547;-70
2022/01/30 03:04:02;;;;;;;9.60;2.67;;;;;;;17.79;45.49;102691.44;5012046;28;20382;-70
2022/01/30 03:06:31;;;;;;;7.55;2.05;;;;;;;17.75;45.55;102703.94;5012732;28;20025;-70
2022/01/30 03:08:57;;;;;;;8.68;2.40;;;;;;;17.75;46.09;102710.97;5013322;28;20030;-70
2022/01/30 03:11:25;;;;;;;9.27;2.85;;;;;;;17.74;46.01;102712.75;5011759;28;20107;-70
2022/01/30 03:13:50;;;;;;;6.85;2.05;;;;;;;17.74;45.86;102714.56;5013205;28;20156;-70
2022/01/30 03:16:16;;;;;;;8.57;2.25;;;;;;;17.75;45.61;102718.88;5012636;28;20109;-70
2022/01/30 03:18:43;;;;;;;11.35;2.42;;;;;;;17.74;46.25;102718.03;5012170;28;20096;-70
2022/01/30 03:21:09;;;;;;;7.50;2.15;;;;;;;17.79;46.30;102724.88;5012905;28;20037;-69
2022/01/30 03:23:37;;;;;;;10.40;3.22;;;;;;;17.81;46.29;102731.75;5012808;28;20034;-69
2022/01/30 03:26:03;;;;;;;8.73;2.25;;;;;;;17.85;46.27;102729.81;5012326;28;20061;-69
2022/01/30 03:28:31;;;;;;;7.97;2.08;;;;;;;17.86;46.04;102729.72;5012498;28;20482;-69
2022/01/30 03:31:00;;;;;;;9.65;1.95;;;;;;;17.88;46.02;102730.56;5012766;28;20025;-69
2022/01/30 03:33:25;;;;;;;7.60;2.40;;;;;;;17.90;45.87;102738.41;5011651;28;20457;-69
2022/01/30 03:35:51;;;;;;;8.45;2.45;;;;;;;17.92;45.85;102739.16;5012626;28;20077;-69
2022/01/30 03:38:16;;;;;;;8.10;2.03;;;;;;;17.93;45.66;102747.00;5012602;28;20061;-69
2022/01/30 03:40:43;;;;;;;10.18;2.55;;;;;;;17.93;45.67;102746.16;5011851;28;20042;-69
2022/01/30 03:43:08;;;;;;;9.73;2.65;;;;;;;17.95;45.55;102758.31;5012209;28;20040;-69
2022/01/30 03:45:34;;;;;;;9.48;2.50;;;;;;;17.96;45.48;102756.56;5012636;28;20389;-70
2022/01/30 03:47:59;;;;;;;8.60;2.45;;;;;;;17.96;45.59;102764.47;5011943;28;20462;-69
2022/01/30 03:50:25;;;;;;;7.32;2.40;;;;;;;17.98;45.42;102772.31;5012440;28;20044;-69
2022/01/30 03:52:50;;;;;;;7.38;2.08;;;;;;;17.97;45.21;102768.81;5012652;28;20030;-69
2022/01/30 03:55:16;;;;;;;9.18;2.30;;;;;;;17.98;44.99;102775.78;5011582;28;20502;-69
2022/01/30 03:57:41;;;;;;;10.73;2.33;;;;;;;17.97;45.01;102774.09;5012544;28;20033;-69
2022/01/30 04:00:07;;;;;;;9.68;2.58;;;;;;;17.97;44.89;102770.59;5011617;28;20026;-69
2022/01/30 04:02:33;;;;;;;8.50;1.88;;;;;;;17.97;45.00;102775.88;5012435;28;20026;-70
2022/01/30 04:04:58;;;;;;;8.35;2.28;;;;;;;17.98;44.91;102785.50;5012646;28;20022;-69
2022/01/30 04:07:24;;;;;;;7.57;2.20;;;;;;;17.97;45.14;102783.78;5011347;28;20420;-69
2022/01/30 04:09:50;;;;;;;10.40;2.88;;;;;;;17.95;44.61;102778.59;5012520;28;20271;-69
2022/01/30 04:12:15;;;;;;;6.30;1.98;;;;;;;17.98;45.06;102777.59;5011910;28;20096;-69
2022/01/30 04:14:42;;;;;;;7.50;1.90;;;;;;;17.97;45.27;102789.06;5011522;28;20034;-69
2022/01/30 04:17:09;;;;;;;10.07;2.45;;;;;;;17.99;45.69;102789.84;5013611;28;20033;-69
2022/01/30 04:19:34;;;;;;;10.30;2.53;;;;;;;17.98;45.76;102796.91;5016157;28;20038;-69
2022/01/30 04:22:09;;;;;;;9.77;2.53;;;;;;;18.00;45.35;102789.75;5015661;28;20068;-69
2022/01/30 04:24:34;;;;;;;11.02;2.67;;;;;;;18.03;45.53;102788.75;5015829;28;20557;-69
2022/01/30 04:26:59;;;;;;;8.10;2.25;;;;;;;18.03;45.60;102788.75;5015992;28;20109;-69
2022/01/30 04:29:28;;;;;;;8.80;2.22;;;;;;;18.04;45.53;102787.81;5014760;28;20037;-69
2022/01/30 04:31:53;;;;;;;9.20;2.45;;;;;;;18.05;45.13;102798.28;5015641;28;20558;-69
2022/01/30 04:34:19;;;;;;;7.82;2.40;;;;;;;18.04;45.51;102801.88;5015777;28;20125;-69
2022/01/30 04:39:39;;;;;;;7.95;2.17;;;;;;;18.06;45.06;102797.38;5015416;28;20059;-69
2022/01/30 04:58:28;;;;;;;9.60;2.10;;;;;;;18.05;44.69;102826.47;5004239;28;20104;-69
2022/01/30 05:01:05;;;;;;;9.00;2.40;;;;;;;18.03;44.56;102821.25;5015327;28;20057;-70
2022/01/30 05:08:21;;;;;;;9.45;2.47;;;;;;;18.01;44.94;102824.91;5014851;28;20369;-70
2022/01/30 05:10:47;;;;;;;7.55;1.95;;;;;;;18.03;44.89;102829.19;5014562;28;20382;-69
2022/01/30 05:13:17;;;;;;;9.32;2.45;;;;;;;18.02;45.34;102827.47;5014665;28;20129;-70
2022/01/30 05:15:43;;;;;;;7.85;2.20;;;;;;;18.03;45.25;102836.25;5015222;28;20045;-70
2022/01/30 05:18:10;;;;;;;6.78;1.90;;;;;;;18.05;45.53;102843.16;5013974;28;20462;-69
2022/01/30 05:20:38;;;;;;;11.38;2.83;;;;;;;18.05;45.09;102837.88;5014989;28;20400;-69
2022/01/30 05:23:04;;;;;;;10.43;2.47;;;;;;;18.05;44.95;102851.06;5015074;28;20108;-69
2022/01/30 05:25:29;;;;;;;7.30;2.25;;;;;;;18.06;44.90;102844.84;5013752;28;20101;-69
2022/01/30 05:27:55;;;;;;;9.32;2.65;;;;;;;18.07;45.09;102841.31;5014534;28;20069;-70
2022/01/30 05:30:21;;;;;;;8.00;2.38;;;;;;;18.06;45.02;102833.47;5014648;28;20033;-70
2022/01/30 05:32:46;;;;;;;7.68;2.20;;;;;;;18.07;45.06;102837.78;5013757;28;20088;-69
2022/01/30 05:35:12;;;;;;;8.15;2.70;;;;;;;18.07;44.97;102843.06;5014267;28;20029;-70
2022/01/30 05:37:39;;;;;;;8.73;2.28;;;;;;;18.06;45.02;102839.59;5014712;28;20117;-70
2022/01/30 05:40:06;;;;;;;6.35;2.15;;;;;;;18.06;44.67;102846.66;5013900;28;20080;-70
2022/01/30 05:42:35;;;;;;;7.47;1.95;;;;;;;18.05;44.88;102842.28;5014395;28;20034;-70
2022/01/30 05:45:21;;;;;;;7.88;2.38;;;;;;;18.03;44.60;102839.72;5015036;28;20030;-70
2022/01/30 05:47:56;;;;;;;9.05;2.03;;;;;;;18.03;44.55;102850.28;5013951;28;20041;-69
2022/01/30 05:50:22;;;;;;;10.13;2.50;;;;;;;18.02;44.05;102856.47;5014194;28;20072;-67
2022/01/30 05:52:47;;;;;;;7.43;1.95;;;;;;;18.00;44.43;102855.72;5013467;28;20425;-68
2022/01/30 05:55:13;;;;;;;6.47;2.43;;;;;;;17.99;44.10;102854.03;5014095;28;20022;-69
2022/01/30 05:57:38;;;;;;;8.10;2.22;;;;;;;18.00;44.43;102865.41;5014142;28;20287;-68
2022/01/30 06:00:05;;;;;;;6.43;1.58;;;;;;;17.99;43.87;102856.66;5013482;28;20034;-68
2022/01/30 06:02:30;;;;;;;8.00;2.05;;;;;;;17.98;44.38;102857.59;5013560;28;20045;-68
2022/01/30 06:04:56;;;;;;;8.73;1.88;;;;;;;17.98;44.52;102862.84;5014192;28;20026;-68
2022/01/30 06:07:27;;;;;;;7.95;1.88;;;;;;;18.00;44.76;102861.00;5013063;28;20065;-68
2022/01/30 06:09:52;;;;;;;6.85;1.90;;;;;;;18.03;45.05;102868.75;5014127;28;20037;-68
2022/01/30 06:12:17;;;;;;;9.68;2.10;;;;;;;18.06;45.38;102865.97;5013905;28;20033;-69
2022/01/30 06:14:45;;;;;;;8.27;2.13;;;;;;;18.10;45.47;102874.59;5013217;28;20509;-69
2022/01/30 06:17:13;;;;;;;7.13;2.03;;;;;;;18.12;45.42;102876.22;5013690;28;20284;-69
2022/01/30 06:19:39;;;;;;;7.95;1.83;;;;;;;18.16;45.54;102870.81;5013878;28;20053;-69
2022/01/30 06:22:04;;;;;;;7.00;1.90;;;;;;;18.19;45.83;102871.50;5013066;28;20100;-69
2022/01/30 06:24:29;;;;;;;8.27;2.10;;;;;;;18.22;46.01;102868.69;5013665;28;20029;-69
2022/01/30 06:26:55;;;;;;;6.68;1.85;;;;;;;18.24;45.34;102866.84;5013981;28;20100;-69
2022/01/30 06:29:20;;;;;;;7.03;1.70;;;;;;;18.27;45.85;102864.03;5012833;28;20038;-70
2022/01/30 06:31:45;;;;;;;11.02;2.17;;;;;;;18.30;46.47;102858.63;5014697;28;20112;-69
2022/01/30 06:34:10;;;;;;;5.67;1.53;;;;;;;18.33;46.87;102862.91;5014831;28;20430;-70
2022/01/30 06:36:36;;;;;;;5.53;1.40;;;;;;;18.36;46.85;102859.22;5013128;28;20418;-70
2022/01/30 06:39:01;;;;;;;7.93;1.90;;;;;;;18.38;46.43;102863.50;5014659;28;20032;-70
2022/01/30 06:41:29;;;;;;;8.15;1.83;;;;;;;18.41;46.29;102867.78;5014248;28;20287;-69
2022/01/30 06:43:55;;;;;;;8.82;1.90;;;;;;;18.42;46.51;102877.41;5013245;28;20481;-70
2022/01/30 06:46:20;;;;;;;7.72;2.00;;;;;;;18.42;46.44;102878.28;5013152;28;20075;-70
2022/01/30 06:48:45;;;;;;;9.07;2.00;;;;;;;18.45;45.93;102875.47;5013388;28;20083;-70
2022/01/30 06:51:13;;;;;;;7.50;2.00;;;;;;;18.45;46.03;102883.41;5012146;28;20118;-70
2022/01/30 06:53:38;;;;;;;8.45;1.92;;;;;;;18.46;45.65;102874.53;5013413;28;20279;-70
2022/01/30 06:56:07;;;;;;;7.30;1.53;;;;;;;18.51;46.08;102894.59;5013018;28;20076;-70
2022/01/30 06:58:32;;;;;;;7.03;1.90;;;;;;;18.52;46.55;102893.63;5013962;28;20264;-70
2022/01/30 07:00:57;;;;;;;6.13;1.60;;;;;;;18.53;46.75;102895.34;5013145;28;20045;-69
2022/01/30 07:03:22;;;;;;;6.70;1.70;;;;;;;18.54;46.81;102900.56;5011977;28;20164;-69
2022/01/30 07:05:48;;;;;;;6.30;1.70;;;;;;;18.56;46.66;102889.91;5013066;28;20751;-70
2022/01/30 07:08:13;;;;;;;10.23;2.30;;;;;;;18.55;46.47;102889.06;5013620;28;20030;-70
2022/01/30 07:10:42;;;;;;;8.15;2.25;;;;;;;18.58;46.32;102903.88;5013180;28;20449;-69
2022/01/30 07:13:08;;;;;;;7.70;2.00;;;;;;;18.59;46.31;102902.97;5012998;28;20030;-69
2022/01/30 07:15:34;;;;;;;8.35;2.10;;;;;;;18.59;46.33;102909.09;5012959;28;20457;-70
2022/01/30 07:17:59;;;;;;;7.47;1.73;;;;;;;18.60;46.08;102902.03;5012308;28;20104;-69
2022/01/30 07:20:24;;;;;;;7.28;1.88;;;;;;;18.61;45.79;102911.66;5012497;28;20370;-69
2022/01/30 07:22:50;;;;;;;8.77;2.73;;;;;;;18.61;45.88;102912.53;5013289;28;20036;-69
2022/01/30 07:25:15;;;;;;;6.70;2.03;;;;;;;18.62;46.06;102910.72;5011988;28;20358;-69
2022/01/30 07:27:42;;;;;;;5.63;1.58;;;;;;;18.63;46.48;102920.38;5012857;28;20425;-69
2022/01/30 07:30:13;;;;;;;6.68;1.73;;;;;;;18.64;46.14;102912.38;5012344;28;20084;-68
2022/01/30 07:32:41;;;;;;;7.15;1.40;;;;;;;18.65;45.97;102907.94;5011643;28;20137;-68
2022/01/30 07:35:10;;;;;;;7.32;2.10;;;;;;;18.68;46.09;102921.00;5012483;28;20034;-68
2022/01/30 07:37:35;;;;;;;6.93;2.20;;;;;;;18.70;46.35;102921.75;5012694;28;20037;-68
2022/01/30 07:40:04;;;;;;;7.57;1.75;;;;;;;18.74;46.11;102931.25;5011833;28;20029;-68
2022/01/30 07:42:29;;;;;;;6.43;1.48;;;;;;;18.77;46.24;102940.78;5012013;28;20033;-67
2022/01/30 07:45:07;;;;;;;6.38;1.75;;;;;;;18.78;45.99;102951.25;5012601;28;20042;-67
2022/01/30 07:47:32;;;;;;;6.97;1.85;;;;;;;18.81;46.14;102948.47;5012445;28;20037;-65
2022/01/30 07:49:58;;;;;;;8.18;1.90;;;;;;;18.83;46.14;102951.03;5012719;28;20022;-68
2022/01/30 07:52:23;;;;;;;6.78;1.88;;;;;;;18.84;46.02;102947.50;5015419;28;20371;-68
2022/01/30 07:54:49;;;;;;;7.13;1.58;;;;;;;18.85;46.08;102947.44;5016619;28;20034;-66
2022/01/30 07:57:16;;;;;;;6.10;1.70;;;;;;;18.90;46.19;102941.03;5016307;28;20381;-68
2022/01/30 07:59:42;;;;;;;9.75;1.67;;;;;;;18.91;46.27;102940.94;5015571;28;20611;-67
2022/01/30 08:02:08;;;;;;;7.35;1.98;;;;;;;18.95;46.01;102944.31;5015912;28;20116;-66
2022/01/30 08:04:33;;;;;;;6.72;1.73;;;;;;;18.95;46.26;102945.16;5016116;28;20470;-65
2022/01/30 08:06:59;;;;;;;7.55;2.10;;;;;;;18.93;46.34;102944.41;5015435;28;20089;-66
2022/01/30 08:09:25;;;;;;;6.60;1.80;;;;;;;18.94;46.35;102954.00;5015865;28;20053;-67
2022/01/30 08:11:56;;;;;;;8.20;1.55;;;;;;;18.93;46.13;102952.31;5016301;28;20058;-69
2022/01/30 08:14:24;;;;;;;5.20;1.58;;;;;;;18.95;46.44;102955.72;5015090;28;20037;-69
2022/01/30 08:16:50;;;;;;;6.10;1.92;;;;;;;18.96;45.93;102956.56;5015966;28;20034;-69
2022/01/30 08:19:16;;;;;;;7.13;1.67;;;;;;;18.97;46.11;102956.50;5015844;28;20036;-69
2022/01/30 08:21:41;;;;;;;7.13;1.95;;;;;;;18.96;46.35;102962.72;5015123;28;20398;-69
2022/01/30 08:24:07;;;;;;;6.28;1.63;;;;;;;18.98;46.38;102967.94;5015803;28;20042;-68
2022/01/30 08:26:32;;;;;;;6.97;1.95;;;;;;;18.98;46.31;102967.94;5015758;28;20109;-68
2022/01/30 08:28:57;;;;;;;8.48;1.70;;;;;;;18.99;46.25;102967.84;5015211;28;20026;-68
2022/01/30 08:31:23;;;;;;;6.55;1.75;;;;;;;19.00;46.36;102971.34;5015376;28;20181;-69
2022/01/30 08:33:49;;;;;;;6.50;2.03;;;;;;;19.01;46.07;102971.28;5016079;28;20442;-71
2022/01/30 08:36:14;;;;;;;8.98;2.33;;;;;;;19.02;45.98;102980.03;5014899;28;20373;-69
2022/01/30 08:38:39;;;;;;;6.77;1.50;;;;;;;19.03;46.22;102969.41;5015872;28;20378;-69
2022/01/30 08:41:04;;;;;;;8.15;2.00;;;;;;;19.02;46.58;102965.03;5015487;28;20288;-69
2022/01/30 08:43:36;;;;;;;6.27;1.63;;;;;;;19.03;46.56;102968.56;5014494;28;20046;-71
2022/01/30 08:46:02;;;;;;;9.73;1.80;;;;;;;18.98;43.87;102975.88;5015581;28;20747;-75
2022/01/30 08:48:30;;;;;;;6.70;1.65;;;;;;;18.98;45.30;102970.59;5014474;28;20117;-69
2022/01/30 08:50:56;;;;;;;8.48;1.95;;;;;;;18.97;44.66;102974.16;5015520;28;20041;-71
2022/01/30 08:53:21;;;;;;;9.43;1.92;;;;;;;18.95;44.64;102974.22;5015043;28;20038;-72
2022/01/30 08:55:46;;;;;;;6.82;1.83;;;;;;;18.97;45.71;102972.34;5014728;28;20083;-68
2022/01/30 08:58:12;;;;;;;6.80;1.53;;;;;;;18.98;45.91;102975.88;5015016;28;20045;-69
2022/01/30 09:00:40;;;;;;;6.80;1.80;;;;;;;18.98;45.85;102966.16;5015355;28;20268;-69
2022/01/30 09:03:06;;;;;;;6.63;1.52;;;;;;;18.97;46.31;102964.41;5014041;28;20034;-69
2022/01/30 09:05:32;;;;;;;6.47;1.80;;;;;;;19.01;46.19;102978.34;5015091;28;20114;-69
2022/01/30 09:07:59;;;;;;;6.38;1.80;;;;;;;19.01;45.81;102981.84;5015250;28;20367;-68
2022/01/30 09:10:24;;;;;;;6.47;1.77;;;;;;;19.03;45.77;102981.75;5013993;28;20025;-68
2022/01/30 09:12:49;;;;;;;11.15;1.90;;;;;;;19.03;45.56;102984.41;5014914;28;20042;-68
2022/01/30 09:15:17;;;;;;;10.52;2.10;;;;;;;19.03;45.29;102994.97;5014879;28;20029;-69
2022/01/30 09:17:45;;;;;;;7.53;1.67;;;;;;;18.99;44.75;102993.41;5014425;28;20049;-69
2022/01/30 09:20:11;;;;;;;7.85;1.88;;;;;;;18.98;45.73;103002.28;5015070;28;20029;-69
2022/01/30 09:22:37;;;;;;;10.35;2.13;;;;;;;18.99;46.34;103007.50;5014810;28;20064;-69
2022/01/30 09:25:04;;;;;;;9.55;2.72;;;;;;;19.00;45.75;103018.91;5014188;28;20490;-68
2022/01/30 09:27:29;;;;;;;8.60;2.30;;;;;;;19.00;45.98;103011.84;5014320;28;20062;-69
2022/01/30 09:29:58;;;;;;;6.35;1.80;;;;;;;18.99;46.16;103004.84;5014834;28;20060;-69
2022/01/30 09:32:23;;;;;;;9.30;2.30;;;;;;;19.01;46.16;103005.63;5013276;28;20026;-69
2022/01/30 09:34:48;;;;;;;8.23;1.88;;;;;;;19.01;46.04;103005.63;5014735;28;20033;-70
2022/01/30 09:37:14;;;;;;;8.43;2.00;;;;;;;19.02;45.74;103009.97;5014130;28;20053;-69
2022/01/30 09:39:42;;;;;;;9.35;2.20;;;;;;;19.04;45.63;103023.09;5013664;28;20099;-69
2022/01/30 09:42:10;;;;;;;6.18;1.42;;;;;;;19.01;45.94;103023.28;5013820;28;20112;-69
2022/01/30 09:44:40;;;;;;;7.35;1.75;;;;;;;19.02;46.15;103024.97;5014414;28;20115;-69
2022/01/30 09:47:10;;;;;;;8.55;1.98;;;;;;;19.03;46.30;103032.81;5014304;28;20029;-69
2022/01/30 09:49:39;;;;;;;7.53;2.13;;;;;;;19.02;44.72;103027.59;5014318;28;20026;-75
2022/01/30 09:52:05;;;;;;;8.20;2.03;;;;;;;19.02;45.62;103040.81;5013551;28;20036;-69
2022/01/30 09:54:33;;;;;;;7.43;2.08;;;;;;;19.02;46.17;103031.09;5013905;28;20044;-69
2022/01/30 09:56:59;;;;;;;7.95;1.90;;;;;;;19.02;46.09;103032.91;5014117;28;20605;-71
2022/01/30 09:59:24;;;;;;;7.63;1.70;;;;;;;19.03;46.01;103026.69;5013435;28;20176;-70
2022/01/30 10:01:49;;;;;;;6.77;1.63;;;;;;;19.04;45.86;103031.03;5014182;28;20118;-70
2022/01/30 10:04:15;;;;;;;9.17;2.00;;;;;;;19.03;46.03;103037.25;5014117;28;20283;-70
2022/01/30 10:07:17;;;;;;;6.82;1.60;;;;;;;19.05;45.90;103045.09;5013678;28;20675;-70
2022/01/30 10:09:49;;;;;;;6.70;1.75;;;;;;;19.06;45.55;103046.81;5020676;28;20103;-71
2022/01/30 10:12:19;;;;;;;7.72;2.05;;;;;;;19.05;45.88;103053.88;5014444;28;20022;-71
2022/01/30 10:14:54;;;;;;;7.55;2.00;;;;;;;19.05;46.44;103056.53;5012941;28;20042;-70
2022/01/30 10:17:50;;;;;;;7.80;1.90;;;;;;;19.03;46.47;103056.59;5014363;28;20104;-71
2022/01/30 10:20:20;;;;;;;8.07;2.15;;;;;;;19.06;46.70;103068.81;5016782;28;20129;-72
2022/01/30 10:22:53;;;;;;;7.32;2.00;;;;;;;19.06;46.91;103060.88;5015090;28;20034;-72
2022/01/30 10:25:20;;;;;;;9.15;2.03;;;;;;;19.06;46.76;103063.53;5022029;28;20026;-72
2022/01/30 10:27:46;;;;;;;10.52;1.83;;;;;;;19.07;46.70;103061.72;5022718;28;20037;-72
2022/01/30 10:30:12;;;;;;;6.55;1.92;;;;;;;19.07;46.36;103056.44;5021805;28;20038;-72
2022/01/30 10:32:37;;;;;;;6.83;2.10;;;;;;;19.07;46.41;103067.88;5020877;28;20030;-73
2022/01/30 10:35:09;;;;;;;8.05;1.98;;;;;;;19.07;46.26;103065.22;5023769;28;20273;-72
2022/01/30 10:37:38;;;;;;;7.03;1.80;;;;;;;19.08;46.13;103058.16;5024413;28;20022;-71
2022/01/30 10:40:11;;;;;;;8.00;2.03;;;;;;;19.09;46.26;103059.84;5021041;28;20041;-72
2022/01/30 10:42:46;;;;;;;8.18;1.90;;;;;;;19.09;46.33;103059.84;5015679;28;20057;-69
2022/01/30 10:45:30;;;;;;;8.15;1.88;;;;;;;19.07;46.07;103054.66;5015617;28;20046;-69
2022/01/30 10:48:28;;;;;;;10.57;2.60;;;;;;;19.07;46.00;103059.94;5015113;28;20076;-69
2022/01/30 10:50:55;;;;;;;9.27;2.08;;;;;;;19.09;46.35;103065.16;5024028;28;20307;-69
2022/01/30 10:53:28;;;;;;;10.90;2.47;;;;;;;19.08;46.52;103061.66;5015580;28;20034;-69
2022/01/30 10:55:53;;;;;;;8.27;1.75;;;;;;;19.07;46.59;103054.66;5016009;28;20030;-69
2022/01/30 10:58:21;;;;;;;8.93;2.43;;;;;;;19.07;46.93;103052.00;5015795;28;20032;-69
2022/01/30 11:00:58;;;;;;;8.77;2.05;;;;;;;19.07;46.91;103054.66;5016447;28;20326;-68
2022/01/30 11:03:45;;;;;;;8.50;2.45;;;;;;;19.08;47.30;103058.16;5014474;28;20405;-68
2022/01/30 11:06:14;;;;;;;7.78;2.10;;;;;;;19.08;46.84;103050.25;5013793;28;20026;-70
2022/01/30 11:08:44;;;;;;;9.43;2.38;;;;;;;19.07;46.33;103043.22;5013909;28;20046;-68
2022/01/30 11:11:22;;;;;;;8.02;2.05;;;;;;;19.08;46.11;103042.31;5012188;28;20025;-68
2022/01/30 11:19:09;;;;;;;5.72;1.85;;;;;;;19.08;46.60;103031.75;5012892;28;20036;-69
2022/01/30 11:21:38;;;;;;;9.52;2.13;;;;;;;19.07;46.64;103017.66;5012950;28;20034;-69
2022/01/30 11:24:04;;;;;;;8.20;2.08;;;;;;;19.07;46.41;103020.28;5012197;28;20121;-68
2022/01/30 11:26:32;;;;;;;7.45;1.95;;;;;;;19.07;46.50;103024.75;5012737;28;20076;-68
2022/01/30 11:28:59;;;;;;;7.13;1.95;;;;;;;19.10;46.52;103032.50;5012880;28;20393;-69
2022/01/30 11:31:24;;;;;;;9.48;2.50;;;;;;;19.09;45.90;103021.09;5011565;28;20033;-68
2022/01/30 11:33:50;;;;;;;7.60;1.85;;;;;;;19.11;45.78;103024.50;5012846;28;20022;-69
2022/01/30 11:36:17;;;;;;;9.85;2.22;;;;;;;19.11;45.74;103011.28;5012592;28;20148;-70
2022/01/30 11:38:42;;;;;;;9.55;2.40;;;;;;;19.12;45.42;103017.41;5011856;28;20042;-69
2022/01/30 11:41:13;;;;;;;12.52;2.90;;;;;;;19.12;45.42;103015.66;5012416;28;20076;-69
2022/01/30 11:43:38;;;;;;;11.48;3.53;;;;;;;19.12;45.92;103010.38;5012900;28;20037;-69
2022/01/30 11:46:14;;;;;;;14.77;5.30;;;;;;;19.13;45.58;103011.22;5012043;28;20382;-68
2022/01/30 11:48:40;;;;;;;15.32;8.07;;;;;;;19.10;44.63;103014.00;5012629;28;20382;-68
2022/01/30 11:51:05;;;;;;;21.05;10.73;;;;;;;19.10;44.63;103006.06;5012524;28;20022;-69
2022/01/30 11:53:30;;;;;;;18.80;11.20;;;;;;;19.11;45.75;103010.44;5011439;28;20608;-71
2022/01/30 11:55:57;;;;;;;19.33;10.18;;;;;;;19.09;43.39;102999.94;5012751;28;20038;-71
2022/01/30 11:58:38;;;;;;;19.92;11.23;;;;;;;19.08;45.18;103002.66;5011380;28;20501;-70
2022/01/30 12:01:25;;;;;;;22.98;11.40;;;;;;;19.10;45.42;103000.78;5012858;28;20474;-69
2022/01/30 12:03:54;;;;;;;20.25;10.85;;;;;;;19.12;45.69;103005.06;5012473;28;20022;-69
2022/01/30 12:06:19;;;;;;;18.60;10.00;;;;;;;19.13;45.64;103004.13;5011269;28;20528;-69
2022/01/30 12:08:51;;;;;;;16.80;9.60;;;;;;;19.14;45.39;102997.06;5012520;28;20029;-69
2022/01/30 12:11:38;;;;;;;16.95;9.23;;;;;;;19.15;45.08;102997.00;5012083;28;20409;-69
2022/01/30 12:14:31;;;;;;;17.38;9.02;;;;;;;19.16;44.70;102998.69;5011553;28;20034;-68
2022/01/30 12:17:00;;;;;;;14.27;8.43;;;;;;;19.17;44.88;102992.47;5012183;28;20034;-71
2022/01/30 12:19:39;;;;;;;17.40;8.43;;;;;;;19.17;45.12;102991.63;5011477;28;20030;-72
2022/01/30 12:22:16;;;;;;;16.73;7.97;;;;;;;19.17;44.15;102997.75;5012549;28;20116;-72
2022/01/30 12:24:43;;;;;;;14.05;7.72;;;;;;;19.17;45.50;102997.75;5012582;28;20057;-70